地図

経路データ

SID SEASON NUMBER BASIN SUBBASIN NAME ISO_TIME NATURE LAT LON WMO_WIND WMO_PRES WMO_AGENCY TRACK_TYPE DIST2LAND LANDFALL IFLAG USA_AGENCY USA_ATCF_ID USA_LAT USA_LON USA_RECORD USA_STATUS USA_WIND USA_PRES USA_SSHS USA_R34_NE USA_R34_SE USA_R34_SW USA_R34_NW USA_R50_NE USA_R50_SE USA_R50_SW USA_R50_NW USA_R64_NE USA_R64_SE USA_R64_SW USA_R64_NW USA_POCI USA_ROCI USA_RMW USA_EYE TOKYO_LAT TOKYO_LON TOKYO_GRADE TOKYO_WIND TOKYO_PRES TOKYO_R50_DIR TOKYO_R50_LONG TOKYO_R50_SHORT TOKYO_R30_DIR TOKYO_R30_LONG TOKYO_R30_SHORT TOKYO_LAND CMA_LAT CMA_LON CMA_CAT CMA_WIND CMA_PRES HKO_LAT HKO_LON HKO_CAT HKO_WIND HKO_PRES NEWDELHI_LAT NEWDELHI_LON NEWDELHI_GRADE NEWDELHI_WIND NEWDELHI_PRES NEWDELHI_CI NEWDELHI_DP NEWDELHI_POCI REUNION_LAT REUNION_LON REUNION_TYPE REUNION_WIND REUNION_PRES REUNION_TNUM REUNION_CI REUNION_RMW REUNION_R34_NE REUNION_R34_SE REUNION_R34_SW REUNION_R34_NW REUNION_R50_NE REUNION_R50_SE REUNION_R50_SW REUNION_R50_NW REUNION_R64_NE REUNION_R64_SE REUNION_R64_SW REUNION_R64_NW BOM_LAT BOM_LON BOM_TYPE BOM_WIND BOM_PRES BOM_TNUM BOM_CI BOM_RMW BOM_R34_NE BOM_R34_SE BOM_R34_SW BOM_R34_NW BOM_R50_NE BOM_R50_SE BOM_R50_SW BOM_R50_NW BOM_R64_NE BOM_R64_SE BOM_R64_SW BOM_R64_NW BOM_ROCI BOM_POCI BOM_EYE BOM_POS_METHOD BOM_PRES_METHOD NADI_LAT NADI_LON NADI_CAT NADI_WIND NADI_PRES WELLINGTON_LAT WELLINGTON_LON WELLINGTON_WIND WELLINGTON_PRES DS824_LAT DS824_LON DS824_STAGE DS824_WIND DS824_PRES TD9636_LAT TD9636_LON TD9636_STAGE TD9636_WIND TD9636_PRES TD9635_LAT TD9635_LON TD9635_WIND TD9635_PRES TD9635_ROCI NEUMANN_LAT NEUMANN_LON NEUMANN_CLASS NEUMANN_WIND NEUMANN_PRES MLC_LAT MLC_LON MLC_CLASS MLC_WIND MLC_PRES USA_GUST BOM_GUST BOM_GUST_PER REUNION_GUST REUNION_GUST_PER USA_SEAHGT USA_SEARAD_NE USA_SEARAD_SE USA_SEARAD_SW USA_SEARAD_NW STORM_SPEED STORM_DIR
1991220N10133 1991 47 WP MM FRED 1991-08-08 00:00:00 NR 10.3000 132.900 main 743 690 O_____________ jtwc_wp WP121991 10.3000 132.900 15 -1 10 275
1991220N10133 1991 47 WP MM FRED 1991-08-08 03:00:00 NR 10.3402 132.392 main 690 639 P_____________ WP121991 10.3402 132.392 15 -1 10 276
1991220N10133 1991 47 WP MM FRED 1991-08-08 06:00:00 NR 10.4000 131.900 main 639 599 O_____________ jtwc_wp WP121991 10.4000 131.900 15 -1 10 279
1991220N10133 1991 47 WP MM FRED 1991-08-08 09:00:00 NR 10.4924 131.435 main 588 549 P_____________ WP121991 10.4924 131.435 15 -1 9 283
1991220N10133 1991 47 WP MM FRED 1991-08-08 12:00:00 NR 10.6000 131.000 main 549 510 O_____________ jtwc_wp WP121991 10.6000 131.000 15 -1 9 284
1991220N10133 1991 47 WP MM FRED 1991-08-08 15:00:00 NR 10.6999 130.585 main 510 473 P_____________ WP121991 10.6999 130.585 15 -1 8 284
1991220N10133 1991 47 WP MM FRED 1991-08-08 18:00:00 NR 10.8000 130.200 main 473 447 O_____________ jtwc_wp WP121991 10.8000 130.200 15 -1 8 285
1991220N10133 1991 47 WP MM FRED 1991-08-08 21:00:00 NR 10.8999 129.842 main 437 404 P_____________ WP121991 10.8999 129.842 15 -1 7 286
1991220N10133 1991 47 WP MM FRED 1991-08-09 00:00:00 NR 11.0000 129.500 main 404 371 O_____________ jtwc_wp WP121991 11.0000 129.500 15 -1 7 286
1991220N10133 1991 47 WP MM FRED 1991-08-09 03:00:00 NR 11.0925 129.150 main 360 328 P_____________ WP121991 11.0925 129.150 17 -1 7 286
1991220N10133 1991 47 WP MM FRED 1991-08-09 06:00:00 NR 11.2000 128.800 main 328 296 O_____________ jtwc_wp WP121991 11.2000 128.800 20 -1 7 289
1991220N10133 1991 47 WP MM FRED 1991-08-09 09:00:00 NR 11.3275 128.435 main 285 257 P_____________ WP121991 11.3275 128.435 20 -1 8 294
1991220N10133 1991 47 WP MM FRED 1991-08-09 12:00:00 NR 11.5000 128.100 main 257 238 O_____________ jtwc_wp WP121991 11.5000 128.100 20 -1 7 305
1991220N10133 1991 47 WP MM FRED 1991-08-09 15:00:00 NR 11.7349 127.842 main 231 225 P_____________ WP121991 11.7349 127.842 20 -1 7 316
1991220N10133 1991 47 WP MM FRED 1991-08-09 18:00:00 NR 12.0000 127.600 main 225 195 O_____________ jtwc_wp WP121991 12.0000 127.600 20 -1 7 313
1991220N10133 1991 47 WP MM FRED 1991-08-09 21:00:00 NR 12.2350 127.300 main 195 166 P_____________ WP121991 12.2350 127.300 20 -1 8 310
1991220N10133 1991 47 WP MM FRED 1991-08-10 00:00:00 NR 12.5000 127.000 main 166 151 O_____________ jtwc_wp WP121991 12.5000 127.000 20 -1 8 318
1991220N10133 1991 47 WP MM FRED 1991-08-10 03:00:00 NR 12.8425 126.742 main 146 146 P_____________ WP121991 12.8425 126.742 20 -1 9 325
1991220N10133 1991 47 WP MM FRED 1991-08-10 06:00:00 NR 13.2000 126.500 main 155 155 O_____________ jtwc_wp WP121991 13.2000 126.500 20 -1 8 324
1991220N10133 1991 47 WP MM FRED 1991-08-10 09:00:00 NR 13.5075 126.250 main 155 155 P_____________ WP121991 13.5075 126.250 20 -1 8 321
1991220N10133 1991 47 WP MM FRED 1991-08-10 12:00:00 NR 13.8000 126.000 main 169 151 O_____________ jtwc_wp WP121991 13.8000 126.000 20 -1 8 320
1991220N10133 1991 47 WP MM FRED 1991-08-10 15:00:00 NR 14.0850 125.750 main 142 126 P_____________ WP121991 14.0850 125.750 20 -1 8 321
1991220N10133 1991 47 WP MM FRED 1991-08-10 18:00:00 NR 14.4000 125.500 main 131 127 O_____________ jtwc_wp WP121991 14.4000 125.500 20 -1 9 326
1991220N10133 1991 47 WP MM FRED 1991-08-10 21:00:00 NR 14.7850 125.257 main 139 132 P_____________ WP121991 14.7850 125.257 20 -1 9 329
1991220N10133 1991 47 WP MM FRED 1991-08-11 00:00:00 NR 15.2000 125.000 main 154 154 O_____________ jtwc_wp WP121991 15.2000 125.000 20 -1 10 328
1991220N10133 1991 47 WP MM FRED 1991-08-11 03:00:00 NR 15.6225 124.715 main 184 184 P_____________ WP121991 15.6225 124.715 22 -1 10 321
1991220N10133 1991 47 WP MM FRED 1991-08-11 06:00:00 TS 16.0000 124.320 1002 tokyo main 216 173 OO____________ jtwc_wp WP121991 16.0000 124.400 25 -1 16.0000 124.000 2 1002 0 0 0 10 312
1991220N10133 1991 47 WP MM FRED 1991-08-11 09:00:00 TS 16.2675 123.972 main 173 135 PP____________ WP121991 16.2725 124.042 25 -1 16.2574 123.830 2 1002 0 0 8 308
1991220N10133 1991 47 WP MM FRED 1991-08-11 12:00:00 TS 16.5000 123.650 1002 tokyo main 135 88 OOO___________ jtwc_wp WP121991 16.5000 123.700 25 -1 16.5000 123.600 2 1002 0 0 0 16.5000 123.600 0 19 1004 8 308
1991220N10133 1991 47 WP MM FRED 1991-08-11 15:00:00 TS 16.7396 123.333 main 88 63 PPP___________ WP121991 16.7650 123.420 25 -1 16.7276 123.285 2 1002 0 0 16.7127 123.253 0 19 1003 7 312
1991220N10133 1991 47 WP MM FRED 1991-08-11 18:00:00 TS 17.0000 123.073 1002 tokyo main 63 53 OOO___________ jtwc_wp WP121991 17.0000 123.200 25 -1 17.0000 123.000 2 1002 0 0 0 17.0000 123.000 0 19 1002 7 327
1991220N10133 1991 47 WP MM FRED 1991-08-11 21:00:00 TS 17.3191 122.935 main 53 53 PPP___________ WP121991 17.1575 123.027 25 -1 17.3999 122.885 2 1002 0 0 17.3999 122.892 0 21 1001 7 340
1991220N10133 1991 47 WP MM FRED 1991-08-12 00:00:00 TS 17.6333 122.833 1002 tokyo main 54 54 OOO___________ jtwc_wp WP121991 17.3000 122.900 25 -1 17.8000 122.800 2 1002 0 0 0 17.8000 122.800 1 23 1000 6 338
1991220N10133 1991 47 WP MM FRED 1991-08-12 03:00:00 TS 17.8890 122.692 main 57 30 PPP___________ WP121991 17.4924 122.830 25 -1 18.0873 122.652 2 1002 0 0 18.0874 122.595 1 23 1000 6 323
1991220N10133 1991 47 WP MM FRED 1991-08-12 06:00:00 TS 18.1000 122.467 1002 tokyo main 30 0 OOO___________ jtwc_wp WP121991 17.7000 122.700 25 -1 18.3000 122.400 2 1002 0 0 0 18.3000 122.300 1 23 1000 7 305
1991220N10133 1991 47 WP MM FRED 1991-08-12 09:00:00 TS 18.2843 122.094 main 0 0 PPP___________ WP121991 17.9075 122.395 25 -1 18.4727 121.973 2 1002 0 0 18.4726 121.915 1 23 1000 8 294
1991220N10133 1991 47 WP MM FRED 1991-08-12 12:00:00 TS 18.4333 121.667 1002 tokyo main 10 0 OOO___________ jtwc_wp WP121991 18.1000 122.000 25 -1 18.6000 121.500 2 1002 0 0 0 18.6000 121.500 1 23 1000 8 290
1991220N10133 1991 47 WP MM FRED 1991-08-12 15:00:00 TS 18.5599 121.290 main 11 10 PPP___________ WP121991 18.2650 121.607 25 -1 18.7074 121.127 2 1002 0 0 18.7074 121.135 1 26 1000 7 289
1991220N10133 1991 47 WP MM FRED 1991-08-12 18:00:00 TS 18.6667 120.933 1002 tokyo main 11 11 OOO___________ jtwc_wp WP121991 18.4000 121.200 25 -1 18.8000 120.800 2 1002 0 0 0 18.8000 120.800 1 29 1000 7 289
1991220N10133 1991 47 WP MM FRED 1991-08-12 21:00:00 TS 18.7841 120.590 main 30 30 PPP___________ WP121991 18.5149 120.800 27 -1 18.9149 120.485 2 1001 0 0 18.9224 120.485 1 29 1000 7 285
1991220N10133 1991 47 WP MM FRED 1991-08-13 00:00:00 TS 18.8308 120.269 1000 tokyo main 54 54 OOOO__________ jtwc_wp WP121991 18.6000 120.400 30 -1 19.0000 120.200 2 1000 0 0 0 19.0000 120.200 1 29 1000 18.4000 120.300 TD 25 995 6 274
1991220N10133 1991 47 WP MM FRED 1991-08-13 03:00:00 TS 18.8292 119.974 main 77 77 PPPP__________ WP121991 18.6575 119.985 30 -1 19.0224 119.942 2 999 0 0 18.9724 119.957 1 29 999 18.5001 120.048 TD 27 995 5 268
1991220N10133 1991 47 WP MM FRED 1991-08-13 06:00:00 TS 18.8133 119.693 35 998 tokyo main 104 104 OOOO__________ jtwc_wp WP121991 18.7000 119.600 30 -1 19.0000 119.700 3 35 998 0 9 60 60 0 18.9000 119.700 1 29 998 18.6000 119.800 TD 30 995 5 268
1991220N10133 1991 47 WP MM FRED 1991-08-13 09:00:00 TS 18.8087 119.411 main 134 134 PPPP__________ WP121991 18.7499 119.285 32 -1 18.9499 119.457 3 37 996 0 9 70 70 18.8351 119.342 1 33 996 18.6999 119.557 TD 32 992 5 271
1991220N10133 1991 47 WP MM FRED 1991-08-13 12:00:00 TS 18.8250 119.125 40 994 tokyo main 164 164 OOOO__________ jtwc_wp WP121991 18.8000 119.000 35 0 18.9000 119.200 3 40 994 0 9 80 80 0 18.8000 119.000 2 38 995 18.8000 119.300 TS 35 990 5 275
1991220N10133 1991 47 WP MM FRED 1991-08-13 15:00:00 TS 18.8562 118.854 main 187 187 PPPP__________ WP121991 18.8424 118.707 40 0 18.8700 118.907 3 42 992 0 9 85 85 18.8199 118.785 2 38 995 18.8924 119.015 TS 37 987 5 281
1991220N10133 1991 47 WP MM FRED 1991-08-13 18:00:00 TS 18.9250 118.575 45 990 tokyo main 218 218 OOOO__________ jtwc_wp WP121991 18.9000 118.400 45 0 18.9000 118.600 3 45 990 0 9 90 90 0 18.9000 118.600 2 38 995 19.0000 118.700 TS 40 985 6 289
1991220N10133 1991 47 WP MM FRED 1991-08-13 21:00:00 TS 19.0474 118.276 main 251 251 PPPP__________ WP121991 18.9775 118.050 47 0 19.0275 118.300 3 47 987 0 9 100 100 19.0424 118.380 2 43 990 19.1424 118.372 TS 42 982 7 295
1991220N10133 1991 47 WP MM FRED 1991-08-14 00:00:00 TS 19.2000 117.950 50 985 tokyo main 287 287 OOOO__________ jtwc_wp WP121991 19.1000 117.700 50 0 19.2000 118.000 4 50 985 0 9 110 110 0 19.2000 118.100 3 48 985 19.3000 118.000 TS 45 980 7 295
1991220N10133 1991 47 WP MM FRED 1991-08-14 03:00:00 TS 19.3425 117.597 main 331 331 PPPP__________ WP121991 19.2849 117.400 52 0 19.3424 117.715 4 52 982 0 9 120 120 19.2926 117.707 3 48 985 19.4500 117.565 TS 47 977 7 294
1991220N10133 1991 47 WP MM FRED 1991-08-14 06:00:00 TS 19.5000 117.225 55 980 tokyo main 378 354 OOOO__________ jtwc_wp WP121991 19.5000 117.100 55 0 19.5000 117.400 4 55 980 9 30 30 9 130 130 0 19.4000 117.300 3 48 985 19.6000 117.100 STS 50 975 8 298
1991220N10133 1991 47 WP MM FRED 1991-08-14 09:00:00 TS 19.7023 116.869 main 354 321 PPPP__________ WP121991 19.7224 116.765 57 0 19.7223 117.038 4 57 977 9 35 35 9 135 135 19.6071 117.030 3 53 982 19.7574 116.643 STS 50 975 8 298
1991220N10133 1991 47 WP MM FRED 1991-08-14 12:00:00 TS 19.8750 116.475 60 975 tokyo main 321 312 OOOO__________ jtwc_wp WP121991 19.9000 116.400 60 0 19.9000 116.600 4 60 975 9 40 40 9 140 140 0 19.8000 116.700 3 58 980 19.9000 116.200 STS 50 975 9 286
1991220N10133 1991 47 WP MM FRED 1991-08-14 15:00:00 TS 19.9363 115.998 main 312 285 PPPP__________ WP121991 19.9724 116.015 62 0 19.9076 116.065 4 62 972 9 45 45 9 145 145 19.8579 116.122 3 58 977 20.0074 115.792 STS 52 972 9 276
1991220N10133 1991 47 WP MM FRED 1991-08-14 18:00:00 TS 19.9750 115.500 65 970 tokyo main 285 259 OOOO__________ jtwc_wp WP121991 20.0000 115.600 65 1 19.9000 115.500 5 65 970 9 50 50 9 150 150 0 19.9000 115.500 3 58 975 20.1000 115.400 STS 55 970 9 279
1991220N10133 1991 47 WP MM FRED 1991-08-14 21:00:00 TS 20.0818 115.033 main 256 236 PPPP__________ WP121991 20.0424 115.157 67 1 20.0350 114.963 5 65 970 9 55 55 9 155 155 20.0423 115.013 3 63 972 20.2074 115.000 STS 60 967 9 285
1991220N10133 1991 47 WP MM FRED 1991-08-15 00:00:00 TS 20.2000 114.600 65 970 tokyo main 236 223 OOOO__________ jtwc_wp WP121991 20.1000 114.700 70 1 20.2000 114.500 5 65 970 9 60 60 9 160 160 0 20.2000 114.600 4 68 970 20.3000 114.600 T 65 965 8 286
1991220N10133 1991 47 WP MM FRED 1991-08-15 03:00:00 TS 20.2928 114.238 main 217 191 PPPP__________ WP121991 20.1923 114.265 72 1 20.3145 114.207 5 67 967 9 70 70 9 165 165 20.3071 114.265 4 68 970 20.3573 114.215 T 67 962 7 284
1991220N10133 1991 47 WP MM FRED 1991-08-15 06:00:00 TS 20.3750 113.850 70 965 tokyo main 191 161 OOOO__________ jtwc_wp WP121991 20.3000 113.800 75 1 20.4000 113.900 5 70 965 9 80 80 9 170 170 0 20.4000 113.900 4 68 970 20.4000 113.800 T 70 960 9 282
1991220N10133 1991 47 WP MM FRED 1991-08-15 09:00:00 TS 20.4724 113.350 main 161 143 PPPP__________ WP121991 20.4224 113.273 77 1 20.4725 113.403 5 72 962 9 85 85 9 170 170 20.5299 113.395 4 72 967 20.4648 113.330 T 75 957 10 278
1991220N10133 1991 47 WP MM FRED 1991-08-15 12:00:00 TS 20.5250 112.775 75 960 tokyo main 143 127 OOOO__________ jtwc_wp WP121991 20.5000 112.700 80 1 20.5000 112.800 5 75 960 9 90 90 9 170 170 0 20.6000 112.800 4 77 965 20.5000 112.800 T 80 955 11 270
1991220N10133 1991 47 WP MM FRED 1991-08-15 15:00:00 TS 20.4813 112.152 main 127 92 PPPP__________ WP121991 20.4799 112.107 85 2 20.4576 112.142 5 75 960 9 90 90 9 185 160 20.5151 112.150 4 77 962 20.4725 112.207 T 80 955 12 264
1991220N10133 1991 47 WP MM FRED 1991-08-15 18:00:00 TS 20.4000 111.525 75 960 tokyo main 83 45 OOOO__________ jtwc_wp WP121991 20.4000 111.500 90 2 20.4000 111.500 5 75 960 9 90 90 3 200 150 0 20.4000 111.500 4 77 960 20.4000 111.600 T 80 955 11 264
1991220N10133 1991 47 WP MM FRED 1991-08-15 21:00:00 TS 20.3704 110.957 main 45 15 PPPP__________ WP121991 20.3149 110.893 92 2 20.4071 110.978 5 75 960 9 90 90 3 200 150 20.4298 110.921 4 82 960 20.3298 111.035 T 75 957 10 264
1991220N10133 1991 47 WP MM FRED 1991-08-16 00:00:00 TS 20.3000 110.425 75 960 tokyo main 10 0 OOOO__________ jtwc_wp WP121991 20.2000 110.300 95 2 20.4000 110.500 5 75 960 9 90 90 3 200 150 0 20.4000 110.400 5 87 960 20.2000 110.500 T 70 960 10 257
1991220N10133 1991 47 WP MM FRED 1991-08-16 03:00:00 TS 20.1375 109.895 main 11 0 PPPP__________ WP121991 20.0725 109.705 95 2 20.3374 110.000 5 72 962 9 85 85 3 220 150 20.1599 109.905 5 82 962 19.9800 109.970 T 62 962 10 247
1991220N10133 1991 47 WP MM FRED 1991-08-16 06:00:00 TS 19.9000 109.425 70 965 tokyo main 10 0 OOOO__________ jtwc_wp WP121991 19.9000 109.200 95 2 20.2000 109.500 5 70 965 9 80 80 3 240 150 0 19.8000 109.500 4 77 965 19.7000 109.500 STS 55 965 10 236
1991220N10133 1991 47 WP MM FRED 1991-08-16 09:00:00 TS 19.6036 109.053 main 0 0 PPPP__________ WP121991 19.6647 108.870 92 2 19.9726 108.970 5 67 967 9 75 75 3 255 150 19.3922 109.250 4 72 967 19.3848 109.120 STS 52 967 9 228
1991220N10133 1991 47 WP MM FRED 1991-08-16 12:00:00 TS 19.3000 108.725 65 970 tokyo main 0 0 OOOO__________ jtwc_wp WP121991 19.4000 108.600 90 2 19.7000 108.500 5 65 970 9 70 70 3 270 150 0 19.0000 109.000 4 68 970 19.1000 108.800 STS 50 970 9 230
1991220N10133 1991 47 WP MM FRED 1991-08-16 15:00:00 TS 19.0600 108.362 main 30 30 PPPP__________ WP121991 19.1426 108.242 87 2 19.4499 108.148 5 65 972 9 60 60 3 240 150 18.7202 108.557 4 68 970 18.9274 108.500 STS 52 967 8 236
1991220N10133 1991 47 WP MM FRED 1991-08-16 18:00:00 TS 18.8500 108.025 65 975 tokyo main 73 73 OOOO__________ jtwc_wp WP121991 18.9000 107.900 85 2 19.2000 107.900 5 65 975 9 50 50 3 210 150 0 18.5000 108.100 4 68 970 18.8000 108.200 STS 55 965 7 233
1991220N10133 1991 47 WP MM FRED 1991-08-16 21:00:00 TS 18.6386 107.768 main 94 94 PPPP__________ WP121991 18.6848 107.650 82 1 18.9498 107.765 5 62 977 9 50 50 3 205 150 18.2698 107.793 4 63 975 18.6499 107.865 STS 55 965 6 231
1991220N10133 1991 47 WP MM FRED 1991-08-17 00:00:00 TS 18.4500 107.500 60 980 tokyo main 124 86 OOOO__________ jtwc_wp WP121991 18.5000 107.400 80 1 18.7000 107.600 4 60 980 9 50 50 3 200 150 0 18.1000 107.500 3 58 980 18.5000 107.500 STS 55 965 7 240
1991220N10133 1991 47 WP MM FRED 1991-08-17 03:00:00 TS 18.2943 107.146 main 77 33 PPPP__________ WP121991 18.3424 107.088 77 1 18.4425 107.252 4 60 980 9 50 50 3 200 150 18.0349 107.130 3 53 980 18.3574 107.115 STS 52 967 8 248
1991220N10133 1991 47 WP MM FRED 1991-08-17 06:00:00 TS 18.1500 106.725 60 980 tokyo main 33 0 OOOO__________ jtwc_wp WP121991 18.2000 106.700 75 1 18.2000 106.800 4 60 980 9 50 50 3 200 150 0 18.0000 106.700 3 48 980 18.2000 106.700 STS 50 970 9 249
1991220N10133 1991 47 WP MM FRED 1991-08-17 09:00:00 TS 17.9835 106.275 main 0 0 PPPP__________ WP121991 18.0422 106.260 65 1 17.9994 106.375 4 57 980 9 40 40 3 175 120 17.8926 106.200 3 38 982 17.9999 106.265 STS 50 970 10 251
1991220N10133 1991 47 WP MM FRED 1991-08-17 12:00:00 TS 17.8267 105.753 55 980 tokyo main 0 0 OOOO__________ jtwc_wp WP121991 17.9000 105.700 55 0 17.8000 105.800 4 55 980 9 30 30 3 150 90 0 17.8000 105.700 1 29 985 17.8000 105.800 STS 50 970 12 255
1991220N10133 1991 47 WP MM FRED 1991-08-17 15:00:00 TS 17.6806 105.097 main 0 0 PPPP__________ WP121991 17.8003 104.965 45 0 17.5433 104.915 4 50 985 9 3 135 105 17.7775 105.275 1 29 985 17.6498 105.323 STS 45 975 13 256
1991220N10133 1991 47 WP MM FRED 1991-08-17 18:00:00 TS 17.5083 104.392 45 990 tokyo main 0 0 OOOO__________ jtwc_wp WP121991 17.7000 104.200 35 0 17.3000 104.000 3 45 990 0 9 120 120 0 17.8000 104.900 1 29 985 17.5000 104.800 TS 40 980 14 253
1991220N10133 1991 47 WP MM FRED 1991-08-17 21:00:00 TS 17.2744 103.715 main 0 0 PP_P__________ WP121991 17.5625 103.557 30 -1 17.1121 103.325 3 40 992 0 9 85 85 1 17.2927 104.185 TS 35 982 13 251
1991220N10133 1991 47 WP MM FRED 1991-08-18 00:00:00 TS 17.0875 103.125 35 994 tokyo main 0 0 OO_O__________ jtwc_wp WP121991 17.4000 103.000 25 -1 17.0000 102.800 3 35 994 0 9 50 50 0 17.1000 103.600 TD 30 985 11 254
1991220N10133 1991 47 WP MM FRED 1991-08-18 03:00:00 TS 16.9774 102.617 main 0 0 _P_P__________ WP121991 -1 16.9773 102.348 3 996 0 9 16.9774 103.155 TD 27 987 9 263
1991220N10133 1991 47 WP MM FRED 1991-08-18 06:00:00 TS 16.9750 102.200 998 tokyo main 0 0 _O_O__________ -1 17.0000 102.000 2 998 0 0 0 16.9000 102.800 TD 25 990 8 272
1991220N10133 1991 47 WP MM FRED 1991-08-18 09:00:00 TS 17.0076 101.730 main 0 0 _P____________ -1 17.0076 101.730 2 998 0 0 TD 7 272
1991220N10133 1991 47 WP MM FRED 1991-08-18 12:00:00 TS 17.0000 101.500 998 tokyo main 0 _O____________ -1 17.0000 101.500 2 998 0 0 0 4 268

デジタル台風データ・検索

IBTrACS Databaseについて

本データベースは、米国NOAAが公開する1842年以降の世界の熱帯低気圧のベストトラックデータアーカイブInternational Best Track Archive for Climate Stewardship (IBTrACS)を、ウェブで閲覧しやすい形式に変換したものです。

最終更新日:2021-12-03